Latest Weather Observations for Mount Keith

IDW60801

Issued at 3:32 pm WST Friday 3 July 2015 (issued every 30 minutes, with the page automatically refreshed every 10 minutes)

About weather observations | Map of weather stations | Latest weather observations for WA | Other Formats
Station Details ID: 512019 Name: MOUNT KEITH Lat: -27.29 Lon: 120.55 Height: 542.33 m
Data from the previous 72 hours. | See also: Recent months for locations in Western Australia
Date/Time
WST
Temp
°C
App
Temp
°C
Dew
Point
Rel
Hum
%
Delta-T
°C
Wind Press
QNH
hPa
Press
MSL
hPa
Rain
since 9 am
mm
Dir
 
Spd
km/h
Gust
km/h
Spd
kts
Gust
kts
03/03:30pm 23.7 20.1 0.7 22 10.9 SE 9 17 5 9 1021.8 1021.4 0.0
03/03:00pm 23.8 19.8 0.8 22 10.9 SSW 11 20 6 11 1021.7 1021.3 0.0
03/02:30pm 23.6 20.3 0.0 21 11.0 SE 7 11 4 6 1021.8 1021.4 0.0
03/02:00pm 23.3 18.9 0.4 22 10.7 SSW 13 20 7 11 1021.9 1021.5 0.0
03/01:30pm 23.2 20.4 -0.3 21 10.9 W 4 13 2 7 1022.1 1021.7 0.0
03/01:00pm 23.7 20.6 0.1 21 11.0 NNW 6 11 3 6 1022.4 1022.1 0.0
03/12:30pm 22.4 18.7 -0.3 22 10.5 WNW 9 15 5 8 1022.6 1022.3 0.0
03/12:00pm 22.9 19.7 0.7 23 10.4 NNE 7 15 4 8 1023.2 1022.8 0.0
03/11:30am 22.1 18.6 1.2 25 9.9 N 9 15 5 8 1023.9 1023.5 0.0
03/11:00am 21.5 17.6 1.2 26 9.5 NNW 11 17 6 9 1024.2 1023.9 0.0
03/10:30am 20.2 15.8 0.6 27 9.0 N 13 17 7 9 1024.5 1024.2 0.0
03/10:00am 19.4 15.0 0.4 28 8.6 N 13 19 7 10 1024.6 1024.3 0.0
03/09:30am 18.1 13.6 -0.2 29 8.2 N 13 19 7 10 1024.9 1024.5 0.0
03/09:00am 17.3 13.7 0.5 32 7.5 N 9 13 5 7 1024.6 1024.3 0.0
03/08:30am 15.3 12.2 1.4 39 6.2 NNE 7 13 4 7 1024.5 1024.2 0.0
03/08:00am 10.5 8.4 1.9 55 3.7 E 2 7 1 4 1024.4 1024.1 0.0
03/07:00am 5.4 2.3 1.1 74 1.7 NNE 7 7 4 4 1023.8 1023.4 0.0
03/06:30am 5.7 2.8 1.2 73 1.8 N 6 7 3 4 1023.7 1023.3 0.0
03/06:00am 5.8 4.0 1.0 71 1.9 CALM 0 6 0 3 1023.6 1023.2 0.0
03/05:30am 5.7 3.9 0.9 71 2.0 CALM 0 0 0 0 1023.4 1023.0 0.0
03/05:00am 6.2 4.4 0.9 69 2.2 CALM 0 0 0 0 1023.3 1022.9 0.0
03/04:30am 6.3 4.4 0.8 68 2.2 CALM 0 0 0 0 1023.3 1022.9 0.0
03/04:14am 6.2 4.4 0.9 69 2.2 CALM 0 0 0 0 1023.4 1023.0 0.0
03/04:00am 6.6 4.8 1.5 70 2.1 CALM 0 0 0 0 1023.5 1023.1 0.0
03/03:48am 6.5 4.3 0.8 67 2.3 N 2 6 1 3 1023.6 1023.2 0.0
03/03:40am 6.7 3.8 1.4 69 2.2 N 6 6 3 3 1023.6 1023.2 0.0
03/03:30am 6.8 3.8 1.1 67 2.4 N 6 7 3 4 1023.6 1023.2 0.0
03/03:00am 7.2 5.4 1.1 65 2.5 CALM 0 0 0 0 1023.8 1023.4 0.0
03/02:31am 6.9 5.1 1.0 66 2.4 CALM 0 0 0 0 1023.9 1023.5 0.0
03/02:30am 7.0 5.2 1.1 66 2.4 CALM 0 0 0 0 1023.9 1023.5 0.0
03/02:14am 6.8 5.0 1.1 67 2.4 CALM 0 0 0 0 1023.9 1023.5 0.0
03/02:00am 7.0 5.2 1.1 66 2.4 CALM 0 4 0 2 1024.0 1023.7 0.0
03/01:55am 7.0 4.8 1.1 66 2.4 NNE 2 6 1 3 1024.0 1023.7 0.0
03/01:30am 7.3 5.5 1.2 65 2.5 CALM 0 0 0 0 1024.2 1023.9 0.0
03/01:00am 7.3 4.4 1.4 66 2.5 NNE 6 7 3 4 1024.3 1024.0 0.0
03/12:30am 8.0 6.2 1.0 61 2.9 CALM 0 0 0 0 1024.5 1024.2 0.0
03/12:00am 8.2 6.4 1.1 61 3.0 CALM 0 0 0 0 1024.7 1024.4 0.0
 
Date/Time
WST
Temp
°C
App
Temp
°C
Dew
Point
Rel
Hum
%
Delta-T
°C
Wind Press
QNH
hPa
Press
MSL
hPa
Rain
since 9 am
mm
Dir
 
Spd
km/h
Gust
km/h
Spd
kts
Gust
kts
02/11:43pm 8.6 6.8 1.3 60 3.1 CALM 0 0 0 0 1024.6 1024.3 0.0
02/11:41pm 8.7 6.9 1.1 59 3.2 CALM 0 0 0 0 1024.6 1024.3 0.0
02/11:30pm 9.0 7.2 1.2 58 3.3 CALM 0 0 0 0 1024.9 1024.5 0.0
02/11:00pm 9.6 7.8 1.0 55 3.6 CALM 0 0 0 0 1024.7 1024.4 0.0
02/10:30pm 10.1 7.9 1.0 53 3.9 SE 2 7 1 4 1025.0 1024.6 0.0
02/10:26pm 10.3 8.1 0.9 52 4.0 SE 2 7 1 4 1024.9 1024.5 0.0
02/10:25pm 10.4 8.1 0.7 51 4.1 SE 2 9 1 5 1024.9 1024.5 0.0
02/10:00pm 11.6 9.4 1.0 48 4.6 NNE 2 9 1 5 1025.0 1024.6 0.0
02/09:44pm 11.7 8.8 1.4 49 4.5 NNE 6 11 3 6 1024.7 1024.4 0.0
02/09:30pm 11.7 8.6 1.4 49 4.5 NE 7 9 4 5 1024.7 1024.4 0.0
02/09:00pm 11.2 8.1 1.5 51 4.2 ENE 7 13 4 7 1024.7 1024.4 0.0
02/08:30pm 12.4 9.3 1.1 46 4.9 W 7 9 4 5 1025.0 1024.6 0.0
02/08:00pm 12.4 9.5 1.4 47 4.8 SE 6 7 3 4 1025.0 1024.6 0.0
02/07:30pm 13.0 10.0 1.0 44 5.2 SE 6 9 3 5 1024.7 1024.4 0.0
02/07:00pm 14.8 11.0 -0.5 35 6.6 SSE 9 9 5 5 1024.4 1024.1 0.0
02/06:30pm 17.5 14.2 -0.2 30 7.9 E 7 9 4 5 1024.3 1024.0 0.0
02/06:00pm 16.1 13.7 -0.2 33 7.1 WNW 2 9 1 5 1024.1 1023.8 0.0
02/05:30pm 18.6 16.6 0.2 29 8.3 CALM 0 0 0 0 1023.9 1023.5 0.0
02/05:00pm 21.5 18.0 -1.1 22 10.1 NW 7 9 4 5 1023.8 1023.4 0.0
02/04:30pm 22.4 18.6 -1.0 21 10.6 NNW 9 13 5 7 1023.6 1023.2 0.0
02/04:00pm 22.6 19.2 -0.8 21 10.7 NNW 7 11 4 6 1023.5 1023.1 0.0
02/03:30pm 23.1 19.7 -0.4 21 10.9 NNW 7 13 4 7 1023.5 1023.1 0.0
02/03:00pm 23.0 18.8 -1.1 20 10.9 N 11 15 6 8 1023.5 1023.1 0.0
02/02:30pm 22.8 18.2 -1.3 20 10.9 NNW 13 20 7 11 1023.8 1023.4 0.0
02/02:00pm 23.1 19.0 -0.4 21 10.8 N 11 20 6 11 1024.0 1023.7 0.0
02/01:30pm 22.6 17.7 -0.2 22 10.5 N 15 22 8 12 1024.3 1024.0 0.0
02/01:00pm 22.4 17.8 -1.0 21 10.6 NNW 13 26 7 14 1024.6 1024.3 0.0
02/12:30pm 21.8 17.2 -0.8 22 10.3 NNW 13 20 7 11 1025.1 1024.7 0.0
02/12:00pm 21.9 17.1 -0.1 23 10.1 N 15 28 8 15 1025.8 1025.5 0.0
02/11:30am 21.9 17.5 0.4 24 10.0 NNW 13 26 7 14 1026.3 1026.0 0.0
02/11:00am 21.1 16.4 0.9 26 9.4 N 15 20 8 11 1027.0 1026.6 0.0
02/10:30am 19.8 15.2 1.3 29 8.6 NNE 15 22 8 12 1027.2 1026.9 0.0
02/10:00am 18.2 13.2 1.3 32 7.7 NE 17 20 9 11 1027.5 1027.2 0.0
02/09:30am 16.2 11.2 1.5 37 6.7 NE 17 20 9 11 1027.6 1027.3 0.0
02/09:00am 14.4 9.8 1.7 42 5.7 NE 15 20 8 11 1027.6 1027.3 0.0
02/08:30am 12.6 8.3 1.0 45 5.1 NE 13 15 7 8 1027.3 1027.0 0.0
02/08:00am 11.0 7.9 1.5 52 4.1 NE 7 9 4 5 1027.1 1026.7 0.0
02/07:30am 7.5 4.1 1.6 66 2.5 NE 9 9 5 5 1026.9 1026.5 0.0
02/07:00am 4.5 1.5 0.8 77 1.5 ENE 6 7 3 4 1026.5 1026.2 0.0
02/06:30am 4.5 1.3 0.6 76 1.6 SE 7 9 4 5 1026.3 1026.0 0.0
02/06:00am 5.2 3.4 1.0 74 1.7 CALM 0 0 0 0 1026.0 1025.7 0.0
02/05:30am 6.0 4.2 1.2 71 2.0 CALM 0 4 0 2 1025.7 1025.4 0.0
02/05:00am 5.8 2.9 1.3 73 1.8 ESE 6 6 3 3 1025.6 1025.3 0.0
02/04:30am 5.8 2.6 0.6 69 2.1 ESE 7 7 4 4 1025.7 1025.4 0.0
02/04:00am 6.5 3.3 1.0 68 2.2 ESE 7 9 4 5 1025.6 1025.3 0.0
02/03:30am 6.6 3.1 1.1 68 2.3 SSE 9 9 5 5 1025.5 1025.1 0.0
02/03:00am 6.7 4.9 1.0 67 2.3 CALM 0 0 0 0 1025.5 1025.1 0.0
02/02:30am 7.0 5.3 1.9 70 2.2 CALM 0 0 0 0 1025.5 1025.1 0.0
02/02:00am 6.8 5.0 1.1 67 2.3 CALM 0 0 0 0 1025.7 1025.4 0.0
02/01:30am 7.3 4.9 2.0 69 2.2 SSE 4 6 2 3 1025.7 1025.4 0.0
02/01:00am 7.5 4.6 1.6 66 2.5 SE 6 7 3 4 1025.9 1025.6 0.0
02/12:30am 7.7 5.5 1.3 64 2.7 NE 2 9 1 5 1026.0 1025.7 0.0
02/12:00am 8.7 6.9 1.4 60 3.1 CALM 0 0 0 0 1026.1 1025.8 0.0
 
Date/Time
WST
Temp
°C
App
Temp
°C
Dew
Point
Rel
Hum
%
Delta-T
°C
Wind Press
QNH
hPa
Press
MSL
hPa
Rain
since 9 am
mm
Dir
 
Spd
km/h
Gust
km/h
Spd
kts
Gust
kts
01/11:30pm 9.0 7.3 1.7 60 3.1 CALM 0 0 0 0 1026.3 1026.0 0.0
01/11:00pm 9.0 7.2 1.2 58 3.3 CALM 0 0 0 0 1026.3 1026.0 0.0
01/10:30pm 9.7 6.8 1.4 56 3.6 ENE 6 7 3 4 1026.5 1026.2 0.0
01/10:00pm 10.2 8.4 1.3 54 3.8 CALM 0 0 0 0 1026.7 1026.4 0.0
01/09:30pm 10.5 8.8 1.9 55 3.8 CALM 0 0 0 0 1026.9 1026.5 0.0
01/09:00pm 11.1 8.9 1.1 50 4.3 ENE 2 6 1 3 1026.7 1026.4 0.0
01/08:30pm 11.5 9.7 1.2 49 4.5 CALM 0 0 0 0 1026.6 1026.3 0.0
01/08:00pm 12.7 10.9 1.1 45 5.0 CALM 0 0 0 0 1026.4 1026.1 0.0
01/07:30pm 13.7 11.3 0.0 39 5.9 ENE 2 6 1 3 1026.2 1025.9 0.0
01/07:00pm 13.8 11.1 2.4 46 5.1 ENE 6 7 3 4 1025.9 1025.6 0.0
01/06:30pm 14.6 11.4 0.5 38 6.2 ENE 7 7 4 4 1025.8 1025.5 0.0
01/06:00pm 16.3 12.5 -0.4 32 7.3 ENE 9 9 5 5 1025.6 1025.3 0.0
01/05:30pm 18.8 14.9 -1.6 25 8.9 ENE 9 9 5 5 1025.4 1025.0 0.0
01/05:00pm 21.1 17.1 -2.0 21 10.1 ENE 9 11 5 6 1025.2 1024.8 0.0
01/04:30pm 22.5 18.1 -2.2 19 11.0 NE 11 15 6 8 1024.9 1024.5 0.0
01/04:00pm 22.8 18.3 -3.5 17 11.4 NE 11 17 6 9 1024.6 1024.3 0.0
01/03:30pm 22.9 18.0 -3.4 17 11.5 NNE 13 20 7 11 1024.5 1024.2 0.0
01/03:00pm 23.2 19.3 -1.7 19 11.2 NNE 9 17 5 9 1024.4 1024.1 0.0
01/02:30pm 23.1 18.2 -3.3 17 11.6 NE 13 19 7 10 1024.6 1024.3 0.0
01/02:00pm 23.2 18.9 -1.7 19 11.2 N 11 20 6 11 1024.9 1024.5 0.0
01/01:30pm 22.6 18.0 -0.8 21 10.7 NE 13 20 7 11 1025.0 1024.6 0.0
01/01:00pm 22.4 17.9 -0.3 22 10.4 NNE 13 22 7 12 1025.4 1025.0 0.0
01/12:30pm 22.1 17.6 0.0 23 10.2 N 13 24 7 13 1025.8 1025.5 0.0
01/12:00pm 21.2 15.7 0.4 25 9.6 N 19 26 10 14 1026.2 1025.9 0.0
01/11:30am 20.9 15.3 1.2 27 9.2 NNE 20 32 11 17 1026.9 1026.5 0.0
01/11:00am 20.8 15.3 1.6 28 9.0 NNE 20 28 11 15 1027.2 1026.9 0.0
01/10:30am 19.7 14.2 2.1 31 8.3 NNE 20 28 11 15 1027.4 1027.1 0.0
01/10:00am 18.2 13.8 2.9 36 7.2 NE 15 20 8 11 1027.8 1027.5 0.0
01/09:30am 16.6 11.9 3.0 40 6.4 NE 17 20 9 11 1027.8 1027.5 0.0
01/09:00am 14.0 9.1 2.3 45 5.3 NE 17 20 9 11 1027.7 1027.4 -
01/08:30am 11.7 6.7 1.6 50 4.4 NE 17 24 9 13 1027.5 1027.2 -
01/08:00am 10.1 5.8 1.2 54 3.8 NE 13 17 7 9 1027.1 1026.7 -
01/07:30am 7.0 4.0 0.7 64 2.6 NE 6 9 3 5 1026.9 1026.3 -
01/07:00am 5.4 2.7 0.4 70 2.0 N 4 7 2 4 1026.7 1026.2 -
01/06:30am 5.6 3.8 1.0 72 1.9 CALM 0 0 0 0 1026.4 1025.9 -
01/06:00am 5.4 2.8 0.8 72 1.8 N 4 7 2 4 1026.1 1025.5 -
01/05:30am 5.1 2.1 0.9 74 1.7 NE 6 9 3 5 1026.1 1025.5 -
01/05:00am 3.6 0.3 0.3 79 1.3 NE 7 9 4 5 1026.1 1025.5 -
01/04:30am 3.3 1.3 0.2 80 1.2 CALM 0 0 0 0 1026.3 1025.8 -
01/04:00am 3.3 0.6 0.0 79 1.3 ESE 4 6 2 3 1026.4 1025.9 -
01/03:30am 3.7 0.6 0.1 77 1.4 S 6 7 3 4 1026.4 1025.9 -
01/03:00am 3.9 0.8 0.1 76 1.5 SE 6 7 3 4 1026.5 1026.0 0.0
01/02:30am 4.2 1.8 0.0 74 1.6 SE 2 7 1 4 1026.4 1025.9 -
01/02:00am 4.5 2.5 0.1 73 1.7 CALM 0 0 0 0 1026.3 1025.8 -
01/01:30am 5.1 3.2 0.5 72 1.8 CALM 0 0 0 0 1026.5 1026.0 -
01/01:00am 5.4 3.5 0.8 72 1.8 CALM 0 0 0 0 1026.6 1026.1 -
01/12:30am 5.6 3.7 0.8 71 1.9 CALM 0 0 0 0 1026.5 1026.0 -
01/12:00am 6.7 4.8 0.8 66 2.4 CALM 0 0 0 0 1026.6 1026.1 -
 
Date/Time
WST
Temp
°C
App
Temp
°C
Dew
Point
Rel
Hum
%
Delta-T
°C
Wind Press
QNH
hPa
Press
MSL
hPa
Rain
since 9 am
mm
Dir
 
Spd
km/h
Gust
km/h
Spd
kts
Gust
kts
30/11:30pm 7.5 4.5 1.1 64 2.7 NE 6 7 3 4 1026.5 1026.0 -
30/11:00pm 7.4 4.3 1.3 65 2.5 NNE 7 9 4 5 1026.9 1026.3 -
30/10:30pm 7.9 4.9 1.1 62 2.8 E 6 7 3 4 1027.0 1026.4 -
30/10:00pm 8.3 6.5 1.0 60 3.0 CALM 0 2 0 1 1027.1 1026.5 -
30/09:30pm 8.2 5.6 0.9 60 3.0 SE 4 6 2 3 1026.9 1026.3 -
30/09:00pm 9.1 6.5 1.0 57 3.4 SSE 4 7 2 4 1026.7 1026.2 0.0
30/08:30pm 9.5 7.7 0.9 55 3.6 CALM 0 0 0 0 1026.5 1026.0 -
30/08:00pm 10.2 8.3 0.5 51 4.1 CALM 0 0 0 0 1026.3 1025.8 -
30/07:30pm 11.1 8.9 1.1 50 4.3 SE 2 7 1 4 1026.1 1025.5 -
30/07:00pm 12.1 8.8 -0.1 43 5.1 SE 7 9 4 5 1025.9 1025.3 -
30/06:30pm 12.8 9.4 -0.8 39 5.7 SE 7 7 4 4 1025.6 1025.0 -
30/06:00pm 14.3 10.6 0.2 38 6.1 ESE 9 9 5 5 1025.3 1024.7 -
30/05:30pm 16.9 13.0 -1.7 28 8.0 E 9 11 5 6 1025.0 1024.4 -
30/05:00pm 19.1 15.4 -2.5 23 9.2 ENE 7 11 4 6 1024.7 1024.2 -
30/04:30pm 20.0 16.6 -2.3 22 9.7 E 6 9 3 5 1024.6 1024.1 -
30/04:00pm 21.1 17.8 -1.4 22 10.0 NNE 6 9 3 5 1024.4 1023.8 -

Other Formats:

Comma delimited format used in spreadsheet applications
http://www.bom.gov.au/fwo/IDW60801/IDW60801.99434.axf

JavaScript Object Notation format (JSON) in row-major order
http://www.bom.gov.au/fwo/IDW60801/IDW60801.99434.json